Time;durP1;ratioP1;P1;durP2;ratioP2;P2;SDS_P1;SDS_P2;PMS_P1;PMS_P2;Temp;Humidity;BMP_temperature;BMP_pressure;BME280_temperature;BME280_humidity;BME280_pressure;Samples;Min_cycle;Max_cycle;Signal;HPM_P1;HPM_P2
2024/01/25 00:00:00;;;;;;;20.60;4.50;;;8.00;76.20;;;6.99;74.54;98876.44;5142425;27;20457;-70
2024/01/25 00:02:28;;;;;;;9.40;2.80;;;8.00;76.20;;;7.17;73.80;98896.88;5123068;27;22877;-71
2024/01/25 00:04:55;;;;;;;16.07;3.70;;;8.00;76.20;;;7.10;74.15;98904.78;5127591;27;20437;-69
2024/01/25 00:07:23;;;;;;;14.20;3.60;;;8.00;76.20;;;7.06;74.13;98904.31;5131769;27;20461;-69
2024/01/25 00:09:50;;;;;;;9.77;3.03;;;8.00;76.20;;;7.15;74.35;98913.19;5150178;27;20545;-69
2024/01/25 00:12:17;;;;;;;10.97;3.40;;;8.00;76.20;;;7.12;74.70;98901.94;5124995;27;20452;-69
2024/01/25 00:14:46;;;;;;;18.30;3.87;;;8.00;76.30;;;7.20;74.29;98899.22;5145779;27;20890;-70
2024/01/25 00:17:15;;;;;;;15.27;3.77;;;8.10;76.20;;;7.17;74.46;98900.44;5130105;27;20502;-70
2024/01/25 00:19:43;;;;;;;18.13;3.50;;;8.10;76.40;;;7.18;74.24;98896.72;5103033;27;20448;-70
2024/01/25 00:22:11;;;;;;;11.20;4.17;;;8.00;76.40;;;7.12;74.84;98891.19;5118457;27;20501;-70
2024/01/25 00:24:38;;;;;;;14.13;3.53;;;8.00;76.50;;;7.07;74.90;98879.13;5126766;27;20914;-70
2024/01/25 00:27:06;;;;;;;12.83;3.77;;;8.00;76.60;;;6.61;74.95;98803.66;5143219;27;20559;-70
2024/01/25 00:29:35;;;;;;;14.03;3.30;;;8.00;76.70;;;7.07;75.32;98879.13;5142353;27;20464;-69
2024/01/25 00:32:05;;;;;;;15.87;4.20;;;7.90;76.80;;;7.06;75.00;98871.22;5146156;27;20481;-70
2024/01/25 00:34:33;;;;;;;11.17;3.17;;;7.90;77.10;;;7.01;75.17;98858.28;5143030;27;20449;-70
2024/01/25 00:37:01;;;;;;;12.70;4.13;;;7.90;77.10;;;6.96;75.44;98871.41;5126502;27;21256;-70
2024/01/25 00:39:30;;;;;;;12.10;3.83;;;7.90;77.20;;;6.94;76.23;98873.44;5144186;27;20511;-71
2024/01/25 00:42:06;;;;;;;13.73;3.67;;;7.90;77.40;;;6.99;75.53;98872.94;5135909;27;20466;-71
2024/01/25 00:44:35;;;;;;;11.23;3.27;;;7.90;77.30;;;6.99;76.02;98871.06;5141414;27;20464;-71
2024/01/25 00:47:05;;;;;;;11.30;3.50;;;7.90;77.40;;;6.97;75.76;98873.09;5143505;27;20518;-71
2024/01/25 00:49:36;;;;;;;15.93;3.87;;;7.90;77.40;;;7.02;75.81;98873.41;5104116;27;20929;-71
2024/01/25 00:52:07;;;;;;;12.43;3.70;;;7.90;77.40;;;7.05;75.92;98878.47;5140840;27;20454;-71
2024/01/25 00:54:35;;;;;;;19.67;4.00;;;7.90;77.30;;;6.93;75.72;98877.13;5140526;27;20463;-70
2024/01/25 00:57:03;;;;;;;16.37;4.60;;;7.90;77.30;;;7.03;75.79;98866.19;5144142;27;20823;-71
2024/01/25 00:59:31;;;;;;;14.63;3.70;;;8.00;77.30;;;7.02;75.37;98843.84;5142060;27;20450;-71
2024/01/25 01:02:00;;;;;;;16.27;3.73;;;8.00;77.30;;;6.62;75.71;98822.28;5139227;27;20457;-71
2024/01/25 01:04:31;;;;;;;13.60;2.83;;;7.90;77.20;;;6.95;75.97;98859.00;5107198;27;20451;-71
2024/01/25 01:06:59;;;;;;;14.57;3.47;;;7.90;77.20;;;6.99;75.65;98859.50;5123944;27;20985;-71
2024/01/25 01:09:26;;;;;;;11.93;3.90;;;8.00;77.30;;;6.95;76.10;98853.63;5115083;27;20545;-69
2024/01/25 01:11:55;;;;;;;12.60;3.00;;;8.00;77.30;;;7.04;75.52;98862.50;5123905;27;20504;-69
2024/01/25 01:14:22;;;;;;;13.27;3.40;;;8.00;77.30;;;7.06;75.68;98852.41;5135712;27;20454;-70
2024/01/25 01:16:50;;;;;;;10.83;3.30;;;8.00;77.30;;;7.00;75.80;98853.94;5126143;27;20813;-69
2024/01/25 01:19:18;;;;;;;13.97;3.80;;;7.90;77.40;;;7.11;76.41;98859.97;5124888;27;20456;-69
2024/01/25 01:21:49;;;;;;;20.47;3.87;;;8.00;77.60;;;7.08;76.21;98848.56;5137841;27;20457;-70
2024/01/25 01:24:18;;;;;;;13.20;3.90;;;8.00;77.60;;;7.03;76.11;98856.28;5142723;27;20479;-71
2024/01/25 01:26:46;;;;;;;12.40;3.10;;;7.90;77.70;;;6.95;75.86;98861.69;5146450;27;20523;-71
2024/01/25 01:29:13;;;;;;;15.07;4.27;;;7.90;77.50;;;7.02;75.86;98861.84;5105719;27;20455;-71
2024/01/25 01:31:41;;;;;;;14.73;3.50;;;8.00;77.40;;;7.06;76.00;98865.84;5122812;27;20506;-71
2024/01/25 01:34:09;;;;;;;13.23;4.20;;;8.00;77.60;;;7.04;76.44;98857.13;5120518;27;20495;-70
2024/01/25 01:36:36;;;;;;;18.00;4.00;;;8.00;77.60;;;7.02;76.25;98861.84;5123955;27;20530;-70
2024/01/25 01:39:06;;;;;;;14.03;3.50;;;8.00;77.60;;;7.06;75.87;98860.47;5120960;27;21097;-69
2024/01/25 01:41:34;;;;;;;10.20;2.50;;;8.00;77.50;;;7.07;75.95;98864.84;5136853;27;20499;-70
2024/01/25 01:44:03;;;;;;;13.03;3.77;;;8.00;77.60;;;6.88;76.29;98847.25;5120311;27;20961;-71
2024/01/25 01:46:35;;;;;;;15.37;3.67;;;7.90;77.50;;;6.97;76.85;98856.97;5125901;27;20866;-70
2024/01/25 01:49:03;;;;;;;11.20;2.80;;;7.90;77.80;;;6.95;76.47;98851.75;5125187;27;20458;-71
2024/01/25 01:51:31;;;;;;;11.90;3.10;;;7.90;77.90;;;7.00;75.87;98845.06;5123785;27;20609;-70
2024/01/25 01:54:00;;;;;;;18.93;5.00;;;7.90;77.90;;;6.87;76.16;98845.56;5121494;27;20450;-71
2024/01/25 01:56:30;;;;;;;11.90;4.67;;;7.80;77.80;;;6.88;76.59;98852.63;5145379;27;20485;-70
2024/01/25 01:59:00;;;;;;;12.60;3.27;;;7.80;77.70;;;6.82;76.21;98840.69;5124566;27;20514;-70
2024/01/25 02:01:28;;;;;;;11.80;3.53;;;7.80;77.80;;;6.84;76.16;98835.16;5111184;27;20461;-71
2024/01/25 02:03:56;;;;;;;13.60;3.70;;;7.80;77.60;;;6.89;76.52;98848.91;5126627;27;20481;-70
2024/01/25 02:06:25;;;;;;;15.10;3.07;;;7.80;77.80;;;6.85;76.68;98847.59;5106752;27;20450;-70
2024/01/25 02:08:53;;;;;;;11.70;4.00;;;7.80;77.70;;;6.74;76.22;98854.97;5140300;27;20516;-71
2024/01/25 02:11:20;;;;;;;10.77;2.57;;;7.70;77.60;;;6.22;76.31;98778.38;5128009;27;20457;-71
2024/01/25 02:13:49;;;;;;;11.43;3.47;;;7.70;77.50;;;6.73;76.23;98852.50;5135099;27;20981;-71
2024/01/25 02:16:17;;;;;;;6.93;2.50;;;7.70;77.50;;;6.78;76.31;98850.97;5144512;27;20461;-71
2024/01/25 02:18:44;;;;;;;15.23;3.40;;;7.70;77.70;;;6.78;76.28;98847.44;5125154;27;20598;-70
2024/01/25 02:21:13;;;;;;;11.20;3.10;;;7.70;77.70;;;6.72;76.52;98854.31;5145311;27;20792;-70
2024/01/25 02:23:41;;;;;;;19.83;4.37;;;7.70;77.60;;;6.72;76.64;98851.63;5135151;27;20852;-70
2024/01/25 02:26:09;;;;;;;15.77;4.00;;;7.70;78.00;;;6.69;76.73;98851.97;5127895;27;20483;-71
2024/01/25 02:28:37;;;;;;;18.83;3.97;;;7.60;77.90;;;6.68;77.63;98862.91;5122753;27;20461;-70
2024/01/25 02:31:04;;;;;;;13.80;3.77;;;7.60;78.20;;;6.62;77.16;98853.69;5131526;27;20470;-71
2024/01/25 02:33:32;;;;;;;11.60;3.17;;;7.60;78.40;;;6.58;77.69;98861.22;5145154;27;20464;-71
2024/01/25 02:36:00;;;;;;;14.47;3.87;;;7.60;78.40;;;6.62;77.67;98861.75;5128242;27;20446;-70
2024/01/25 02:38:27;;;;;;;16.43;4.03;;;7.60;78.40;;;6.69;77.60;98861.91;5145993;27;20480;-70
2024/01/25 02:40:56;;;;;;;13.80;3.90;;;7.60;78.60;;;6.78;77.01;98876.97;5145623;27;20462;-70
2024/01/25 02:43:25;;;;;;;13.90;3.50;;;7.60;78.40;;;6.74;77.30;98873.78;5111607;27;20518;-70
2024/01/25 02:45:54;;;;;;;16.77;3.03;;;7.60;78.40;;;6.71;77.07;98874.13;5144742;27;20454;-70
2024/01/25 02:48:21;;;;;;;15.83;3.47;;;7.60;78.30;;;6.72;76.97;98874.97;5123480;27;20891;-69
2024/01/25 02:50:49;;;;;;;14.60;2.93;;;7.70;78.20;;;6.85;75.94;98877.13;5147188;27;20938;-70
2024/01/25 02:53:16;;;;;;;19.90;3.83;;;7.70;77.90;;;6.87;76.02;98884.03;5135913;27;20607;-70
2024/01/25 02:55:44;;;;;;;11.13;3.60;;;7.80;77.70;;;6.85;75.58;98877.13;5145473;27;20455;-70
2024/01/25 02:58:13;;;;;;;13.33;2.57;;;7.80;77.60;;;6.75;75.34;98878.19;5123930;27;20459;-70
2024/01/25 03:00:41;;;;;;;15.37;3.47;;;7.70;77.30;;;6.73;75.36;98877.47;5118753;28;20475;-70
2024/01/25 03:03:08;;;;;;;11.00;3.33;;;7.70;77.40;;;6.79;75.62;98887.56;5141907;27;21005;-69
2024/01/25 03:05:36;;;;;;;14.87;3.77;;;7.70;77.50;;;6.68;75.15;98866.41;5114670;27;20782;-70
2024/01/25 03:08:04;;;;;;;15.87;3.60;;;7.70;77.30;;;6.70;75.45;98877.81;5103163;27;20473;-70
2024/01/25 03:10:33;;;;;;;14.70;3.50;;;7.70;77.20;;;6.62;74.88;98880.53;5143228;27;20470;-69
2024/01/25 03:13:00;;;;;;;12.77;3.30;;;7.70;76.90;;;6.79;74.49;98887.56;5109293;27;20491;-69
2024/01/25 03:15:30;;;;;;;9.60;2.83;;;7.70;76.90;;;6.79;74.58;98887.56;5144392;27;20454;-69
2024/01/25 03:17:57;;;;;;;11.07;3.60;;;7.70;76.80;;;6.71;74.33;98887.56;5122759;28;20442;-71
2024/01/25 03:20:25;;;;;;;12.30;3.10;;;7.70;76.60;;;6.71;73.94;98882.19;5133212;27;20536;-71
2024/01/25 03:22:52;;;;;;;22.60;3.47;;;7.70;76.50;;;6.85;74.03;98879.81;5122357;27;20449;-69
2024/01/25 03:25:20;;;;;;;15.23;2.70;;;7.80;76.70;;;6.71;74.57;98892.94;5119316;27;20474;-71
2024/01/25 03:27:48;;;;;;;12.57;2.93;;;7.70;76.60;;;6.72;74.09;98883.88;5122963;27;20471;-69
2024/01/25 03:30:16;;;;;;;14.30;3.60;;;7.70;76.40;;;6.78;73.90;98885.03;5119237;27;20462;-71
2024/01/25 03:32:48;;;;;;;14.63;4.13;;;7.70;76.50;;;6.75;74.21;98901.50;5126632;27;20485;-69
2024/01/25 03:35:15;;;;;;;16.93;3.83;;;7.70;76.50;;;6.57;74.48;98888.25;5137802;27;20458;-69
2024/01/25 03:37:43;;;;;;;17.60;4.00;;;7.60;76.60;;;6.62;73.77;98878.66;5124449;27;20449;-69
2024/01/25 03:40:12;;;;;;;13.97;3.23;;;7.70;76.50;;;6.71;74.16;98901.00;5099675;27;20493;-69
2024/01/25 03:42:39;;;;;;;17.17;3.70;;;7.70;76.40;;;6.67;74.02;98905.03;5121872;27;20465;-70
2024/01/25 03:45:08;;;;;;;19.47;3.60;;;7.70;76.40;;;6.66;74.34;98897.97;5123897;27;20462;-69
2024/01/25 03:47:35;;;;;;;12.30;3.63;;;7.60;76.50;;;6.68;74.22;98901.34;5144411;27;20453;-70
2024/01/25 03:50:10;;;;;;;12.23;3.17;;;7.60;76.50;;;6.64;74.11;98903.50;5123206;27;20445;-70
2024/01/25 03:52:38;;;;;;;18.40;3.43;;;7.60;76.40;;;6.62;74.40;98913.59;5127752;27;20922;-70
2024/01/25 03:55:07;;;;;;;14.80;3.80;;;7.60;76.30;;;6.68;74.35;98908.56;5145257;27;20446;-70
2024/01/25 03:57:36;;;;;;;10.00;2.83;;;7.60;76.40;;;6.59;74.56;98911.25;5128349;27;20437;-70
2024/01/25 04:00:05;;;;;;;10.43;2.93;;;7.60;76.50;;;6.65;74.17;98909.72;5132939;27;20461;-70
2024/01/25 04:02:33;;;;;;;19.50;4.63;;;7.60;76.40;;;6.60;74.68;98928.19;5145373;27;20541;-70
2024/01/25 04:05:00;;;;;;;8.13;3.07;;;7.60;76.40;;;6.64;74.12;98916.94;5125531;27;21170;-69
2024/01/25 04:07:31;;;;;;;13.27;3.03;;;7.70;76.50;;;6.56;74.62;98910.72;5147630;27;20447;-69
2024/01/25 04:09:58;;;;;;;14.20;3.47;;;7.60;76.40;;;6.67;74.53;98905.03;5140847;27;20498;-70
2024/01/25 04:12:26;;;;;;;16.07;3.80;;;7.60;76.50;;;6.63;74.25;98919.81;5145583;27;20496;-71
2024/01/25 04:14:57;;;;;;;17.47;3.20;;;7.60;76.40;;;6.60;73.85;98917.47;5128342;27;20447;-70
2024/01/25 04:17:24;;;;;;;12.77;3.63;;;7.60;76.30;;;6.72;73.82;98913.41;5122918;27;20447;-70
2024/01/25 04:19:51;;;;;;;10.60;3.20;;;7.70;76.30;;;6.72;73.60;98913.41;5125714;27;20831;-70
2024/01/25 04:22:18;;;;;;;13.47;3.70;;;7.70;76.20;;;6.69;73.58;98913.75;5125332;27;20447;-70
2024/01/25 04:24:49;;;;;;;11.40;3.57;;;7.70;76.20;;;6.64;73.92;98911.56;5141457;27;20472;-71
2024/01/25 04:27:17;;;;;;;12.17;3.80;;;7.60;76.20;;;6.63;74.13;98914.44;5125052;27;20842;-69
2024/01/25 04:29:44;;;;;;;15.57;3.70;;;7.60;76.30;;;6.60;74.11;98920.97;5125424;27;20455;-70
2024/01/25 04:32:13;;;;;;;12.90;3.17;;;7.60;76.10;;;6.59;74.25;98913.06;5128237;27;20454;-70
2024/01/25 04:34:40;;;;;;;18.07;3.50;;;7.60;76.20;;;6.66;74.17;98919.47;5143637;27;20503;-70
2024/01/25 04:37:09;;;;;;;13.67;3.03;;;7.60;76.40;;;6.64;73.69;98910.75;5122803;27;20462;-71
2024/01/25 04:39:37;;;;;;;16.23;4.40;;;7.60;76.30;;;6.55;73.92;98917.09;5144435;27;20450;-71
2024/01/25 04:42:06;;;;;;;11.37;3.20;;;7.60;76.20;;;6.61;74.10;98921.81;5148354;27;20457;-71
2024/01/25 04:44:35;;;;;;;16.13;3.23;;;7.60;76.20;;;6.58;74.37;98906.03;5146809;27;20565;-71
2024/01/25 04:47:02;;;;;;;13.30;3.60;;;7.50;76.30;;;6.58;73.94;98914.94;5142563;27;20896;-72
2024/01/25 04:49:29;;;;;;;10.40;3.27;;;7.50;76.30;;;6.59;74.21;98927.34;5126710;27;20445;-70
2024/01/25 04:51:57;;;;;;;12.77;3.43;;;7.50;76.50;;;6.51;74.53;98933.56;5128843;27;20446;-70
2024/01/25 04:54:24;;;;;;;11.47;3.80;;;7.50;76.50;;;6.62;74.28;98934.25;5141704;27;20475;-71
2024/01/25 04:56:52;;;;;;;9.37;3.80;;;7.50;76.50;;;6.57;74.52;98939.25;5137999;27;20441;-71
2024/01/25 04:59:20;;;;;;;11.17;3.40;;;7.50;76.60;;;6.62;74.50;98939.63;5145888;27;20475;-71
2024/01/25 05:01:49;;;;;;;15.33;3.70;;;7.50;76.70;;;6.62;74.16;98950.34;5119593;27;20493;-72
2024/01/25 05:04:17;;;;;;;11.93;2.80;;;7.50;76.50;;;6.61;74.12;98943.31;5143616;27;20477;-71
2024/01/25 05:06:45;;;;;;;12.47;3.30;;;7.50;76.60;;;6.61;74.51;98946.81;5145716;27;20980;-71
2024/01/25 05:09:13;;;;;;;11.80;3.03;;;7.60;76.60;;;6.63;74.53;98952.03;5143867;27;20675;-71
2024/01/25 05:11:40;;;;;;;13.67;3.83;;;7.60;76.70;;;6.64;74.30;98956.41;5129014;27;20909;-71
2024/01/25 05:14:10;;;;;;;17.30;4.13;;;7.50;76.70;;;6.45;75.39;98961.09;5106750;27;20456;-70
2024/01/25 05:16:39;;;;;;;13.40;3.10;;;7.50;76.90;;;6.38;75.63;98965.41;5123842;27;20521;-71
2024/01/25 05:19:07;;;;;;;9.83;3.90;;;7.40;77.00;;;6.30;76.21;98974.28;5108057;27;20460;-71
2024/01/25 05:21:35;;;;;;;12.80;3.73;;;7.30;77.10;;;6.28;76.37;98981.66;5128579;27;20453;-72
2024/01/25 05:24:03;;;;;;;15.30;3.90;;;7.30;77.30;;;6.23;76.51;98984.84;5130820;27;20483;-70
2024/01/25 05:26:32;;;;;;;14.20;3.93;;;7.30;77.40;;;6.24;76.73;98978.47;5129357;27;20462;-69
2024/01/25 05:28:59;;;;;;;18.03;4.43;;;7.20;77.60;;;6.13;77.38;98981.44;5148598;27;20450;-70
2024/01/25 05:31:27;;;;;;;14.80;3.83;;;7.20;77.80;;;6.13;77.66;98978.75;5147637;27;20526;-70
2024/01/25 05:33:58;;;;;;;13.03;3.47;;;7.10;78.10;;;6.12;77.68;98987.81;5146761;27;20537;-70
2024/01/25 05:36:26;;;;;;;14.70;3.77;;;7.10;78.20;;;6.20;77.68;98990.53;5142966;27;20441;-71
2024/01/25 05:38:55;;;;;;;20.03;4.53;;;7.10;78.20;;;5.81;77.90;98932.88;5125654;27;20540;-74
2024/01/25 05:41:23;;;;;;;13.40;5.00;;;7.20;78.30;;;6.21;77.60;98994.91;5143329;27;20472;-74
2024/01/25 05:43:50;;;;;;;19.30;4.80;;;7.20;78.20;;;6.19;77.78;98988.00;5129777;27;20484;-72
2024/01/25 05:46:18;;;;;;;15.20;3.87;;;7.20;78.30;;;6.27;77.95;98974.63;5106388;27;22064;-73
2024/01/25 05:48:48;;;;;;;14.23;3.73;;;7.20;78.30;;;6.29;77.81;98982.50;5148553;27;20489;-75
2024/01/25 05:51:17;;;;;;;17.43;3.43;;;7.30;78.40;;;6.27;77.81;98989.88;5147820;27;20869;-74
2024/01/25 05:53:45;;;;;;;17.03;4.07;;;7.30;78.40;;;6.48;77.26;99029.69;5145510;27;20506;-72
2024/01/25 05:56:14;;;;;;;13.23;3.63;;;7.30;78.50;;;6.17;78.24;99020.41;5148200;27;20805;-73
2024/01/25 05:58:43;;;;;;;17.30;4.40;;;7.20;78.30;;;6.22;78.24;99015.38;5128473;27;20542;-72
2024/01/25 06:01:13;;;;;;;17.80;4.77;;;7.20;78.50;;;6.18;78.70;99019.38;5110511;27;20450;-73
2024/01/25 06:03:43;;;;;;;15.13;3.27;;;7.10;78.80;;;6.12;78.90;99011.97;5129933;27;20453;-72
2024/01/25 06:06:13;;;;;;;15.50;4.57;;;7.20;78.90;;;6.20;78.95;99016.53;5104347;27;20450;-74
2024/01/25 06:08:43;;;;;;;11.90;3.50;;;7.20;78.90;;;6.14;79.43;99034.13;5141757;27;20496;-72
2024/01/25 06:11:12;;;;;;;13.40;5.23;;;7.20;79.00;;;6.08;79.15;99029.41;5141123;27;20461;-75
2024/01/25 06:13:39;;;;;;;16.30;4.90;;;7.10;79.10;;;5.96;80.15;99029.66;5127385;27;20507;-72
2024/01/25 06:16:07;;;;;;;20.53;4.63;;;7.00;79.30;;;6.06;80.63;99042.16;5129112;27;20950;-74
2024/01/25 06:18:34;;;;;;;19.93;4.43;;;7.00;80.20;;;6.01;80.27;99039.09;5126454;27;20449;-82
2024/01/25 06:21:04;;;;;;;20.83;4.37;;;7.00;79.80;;;5.88;81.18;99040.34;5124328;27;20446;-71
2024/01/25 06:23:32;;;;;;;12.87;3.70;;;6.90;79.90;;;5.96;80.55;99042.25;5123705;27;20454;-77
2024/01/25 06:26:00;;;;;;;22.83;4.23;;;6.90;80.10;;;6.12;81.56;99046.03;5136901;27;20921;-75
2024/01/25 06:28:30;;;;;;;14.00;3.80;;;7.00;80.60;;;5.91;80.51;99040.03;5138260;27;20945;-76
2024/01/25 06:30:58;;;;;;;12.83;3.70;;;7.00;79.90;;;5.92;80.82;99052.44;5125750;27;20996;-76
2024/01/25 06:33:27;;;;;;;20.77;4.53;;;6.90;80.00;;;5.94;82.76;99028.16;5121222;27;20453;-76
2024/01/25 06:35:57;;;;;;;18.37;4.10;;;6.90;80.50;;;6.27;80.44;99065.03;5138348;27;20441;-74
2024/01/25 06:38:25;;;;;;;16.90;4.60;;;7.10;81.10;;;5.99;80.44;99057.16;5120892;27;20446;-73
2024/01/25 06:40:52;;;;;;;16.37;4.30;;;7.00;80.00;;;6.16;83.63;99042.88;5123483;27;20528;-70
2024/01/25 06:43:21;;;;;;;19.00;3.73;;;7.00;81.30;;;5.98;80.39;99045.59;5108756;27;20445;-70
2024/01/25 06:45:48;;;;;;;14.27;4.37;;;7.00;80.20;;;5.91;80.36;99041.84;5122706;27;20960;-70
2024/01/25 06:48:15;;;;;;;17.93;5.30;;;6.80;80.00;;;5.77;81.04;99043.31;5137191;27;20472;-69
2024/01/25 06:50:43;;;;;;;10.47;4.43;;;6.70;80.20;;;5.57;81.54;99048.91;5101482;27;20850;-70
2024/01/25 06:53:11;;;;;;;15.10;4.43;;;6.60;80.50;;;5.56;81.85;99041.84;5142767;27;20541;-70
2024/01/25 06:55:38;;;;;;;18.07;4.90;;;6.50;80.60;;;5.23;82.25;99004.94;5121866;27;20457;-69
2024/01/25 06:58:06;;;;;;;16.90;4.47;;;6.40;80.80;;;5.41;82.81;99052.28;5132123;27;20467;-70
2024/01/25 07:00:34;;;;;;;21.27;4.50;;;6.40;81.00;;;5.36;83.02;99060.81;5118995;27;20458;-70
2024/01/25 07:03:02;;;;;;;19.00;3.70;;;6.30;81.20;;;5.31;83.20;99063.13;5093843;27;20515;-71
2024/01/25 07:05:33;;;;;;;15.97;4.13;;;6.30;81.50;;;5.30;83.70;99069.47;5140506;27;20468;-71
2024/01/25 07:08:00;;;;;;;17.60;4.37;;;6.20;81.50;;;5.20;83.92;99068.72;5125084;27;20452;-72
2024/01/25 07:10:29;;;;;;;20.90;4.50;;;6.20;81.60;;;4.81;83.94;99006.47;5123926;27;20460;-80
2024/01/25 07:12:56;;;;;;;20.50;4.03;;;6.20;81.80;;;5.17;83.87;99071.72;5139213;27;21012;-71
2024/01/25 07:15:23;;;;;;;9.20;3.40;;;6.20;81.90;;;5.19;84.60;99067.91;5141421;27;20863;-73
2024/01/25 07:17:53;;;;;;;9.93;3.93;;;6.20;82.00;;;5.21;84.34;99075.75;5135208;27;20441;-71
2024/01/25 07:20:20;;;;;;;25.33;5.13;;;6.20;82.00;;;5.16;84.20;99072.72;5115959;27;21244;-71
2024/01/25 07:22:49;;;;;;;16.30;4.03;;;6.20;82.20;;;5.10;84.86;99066.13;5135251;27;20763;-72
2024/01/25 07:25:17;;;;;;;20.10;4.90;;;6.10;82.20;;;5.14;84.86;99072.84;5141606;27;20504;-75
2024/01/25 07:27:46;;;;;;;18.63;4.50;;;6.10;82.20;;;4.87;85.08;99044.34;5140945;27;20448;-73
2024/01/25 07:30:15;;;;;;;17.43;4.83;;;6.20;82.40;;;5.22;84.93;99093.50;5124896;27;20544;-73
2024/01/25 07:32:42;;;;;;;17.43;4.60;;;6.20;82.20;;;5.19;84.42;99093.84;5151895;27;20850;-75
2024/01/25 07:35:11;;;;;;;22.17;5.50;;;6.20;82.30;;;5.18;84.52;99098.38;5143583;27;20459;-73
2024/01/25 07:37:39;;;;;;;20.43;4.13;;;6.20;82.40;;;5.15;84.32;99103.19;5123242;27;20476;-73
2024/01/25 07:40:09;;;;;;;17.43;4.50;;;6.20;82.40;;;5.04;84.73;99082.81;5119476;27;20448;-74
2024/01/25 07:42:36;;;;;;;22.10;5.07;;;6.20;82.60;;;5.10;85.53;99096.47;5142823;27;20531;-77
2024/01/25 07:45:04;;;;;;;11.57;3.83;;;6.20;82.60;;;5.19;85.05;99115.25;5135112;27;20987;-73
2024/01/25 07:47:32;;;;;;;15.37;4.57;;;6.20;82.70;;;5.08;85.46;99098.44;5143933;27;20459;-75
2024/01/25 07:49:59;;;;;;;24.40;5.13;;;6.10;82.80;;;5.19;85.01;99109.91;5125582;27;20441;-75
2024/01/25 07:52:28;;;;;;;19.13;5.63;;;6.20;82.90;;;5.20;84.86;99114.28;5145859;27;20452;-76
2024/01/25 07:54:55;;;;;;;10.07;3.57;;;6.20;82.90;;;5.18;85.08;99113.59;5141975;27;20452;-75
2024/01/25 07:57:22;;;;;;;15.30;4.40;;;6.20;82.90;;;5.17;84.78;99123.47;5120499;27;20447;-76
2024/01/25 07:59:49;;;;;;;14.23;5.13;;;6.20;82.80;;;5.20;85.39;99108.91;5140154;27;20548;-75
2024/01/25 08:02:17;;;;;;;16.83;3.67;;;6.20;82.90;;;5.22;85.38;99114.94;5136618;27;20852;-75
2024/01/25 08:04:44;;;;;;;14.93;3.53;;;6.20;82.80;;;5.26;85.05;99111.00;5122464;27;20469;-76
2024/01/25 08:07:11;;;;;;;18.57;4.27;;;6.30;82.70;;;5.25;84.67;99106.63;5120668;27;20974;-74
2024/01/25 08:09:41;;;;;;;22.63;5.13;;;6.30;82.70;;;5.14;84.99;99086.25;5124901;27;20456;-74
2024/01/25 08:12:08;;;;;;;16.20;3.87;;;6.30;82.70;;;5.34;84.11;99124.44;5120131;27;20537;-75
2024/01/25 08:14:35;;;;;;;17.97;4.30;;;6.30;82.50;;;5.31;84.31;99116.72;5121039;27;20449;-76
2024/01/25 08:17:03;;;;;;;21.30;4.27;;;6.40;82.40;;;5.27;83.54;99099.28;5140151;27;20457;-70
2024/01/25 08:19:32;;;;;;;14.73;3.63;;;6.40;82.30;;;5.37;83.74;99116.09;5097616;27;20442;-69
2024/01/25 08:22:00;;;;;;;12.10;3.63;;;6.40;82.30;;;5.32;83.83;99118.41;5140638;27;20470;-70
2024/01/25 08:24:29;;;;;;;12.50;4.30;;;6.40;82.20;;;5.39;83.66;99118.63;5120902;27;20468;-70
2024/01/25 08:26:58;;;;;;;20.37;4.10;;;6.40;82.20;;;5.39;83.23;99119.47;5121840;27;21239;-69
2024/01/25 08:29:26;;;;;;;12.37;4.40;;;6.40;82.00;;;5.45;83.36;99122.53;5118671;27;20838;-74
2024/01/25 08:31:54;;;;;;;16.97;5.40;;;6.50;81.90;;;5.55;82.94;99125.97;5135652;27;20501;-73
2024/01/25 08:34:21;;;;;;;16.60;4.00;;;6.50;82.00;;;5.57;82.59;99131.16;5116369;27;20513;-74
2024/01/25 08:36:48;;;;;;;17.93;4.60;;;6.50;81.70;;;5.51;82.65;99128.13;5137585;27;20466;-75
2024/01/25 08:39:17;;;;;;;14.47;3.60;;;6.50;81.50;;;5.56;82.14;99127.66;5139647;27;21230;-75
2024/01/25 08:41:45;;;;;;;14.83;4.40;;;6.60;81.20;;;5.65;81.82;99124.00;5139293;27;20459;-75
2024/01/25 08:44:14;;;;;;;16.90;4.30;;;6.60;81.10;;;5.71;80.87;99121.72;5140745;27;20504;-74
2024/01/25 08:46:42;;;;;;;9.67;3.70;;;6.70;81.20;;;5.72;80.76;99124.22;5140030;27;20481;-74
2024/01/25 08:49:12;;;;;;;17.30;4.10;;;6.70;80.80;;;5.77;80.64;99138.03;5138478;27;20453;-73
2024/01/25 08:51:39;;;;;;;12.77;3.87;;;6.80;80.70;;;5.80;80.08;99140.41;5126094;27;20906;-74
2024/01/25 08:54:06;;;;;;;19.70;5.00;;;6.80;80.60;;;5.92;80.01;99154.38;5144755;27;20433;-74
2024/01/25 08:56:34;;;;;;;20.57;5.83;;;6.80;80.60;;;5.94;79.86;99157.75;5140516;27;20460;-74
2024/01/25 08:59:01;;;;;;;17.20;4.40;;;6.90;80.40;;;5.99;79.21;99162.63;5125790;27;20561;-73
2024/01/25 09:01:30;;;;;;;18.30;4.57;;;6.90;80.30;;;6.04;78.27;99170.25;5139132;27;20478;-73
2024/01/25 09:04:02;;;;;;;19.90;4.90;;;7.00;80.00;;;5.99;78.30;99154.59;5125170;27;20462;-74
2024/01/25 09:06:30;;;;;;;11.73;3.43;;;7.00;79.90;;;6.08;78.19;99158.19;5141367;27;21170;-73
2024/01/25 09:08:59;;;;;;;15.43;4.73;;;7.10;79.90;;;6.11;78.13;99160.56;5137572;27;20449;-73
2024/01/25 09:11:26;;;;;;;24.43;4.97;;;7.10;80.00;;;6.19;78.08;99157.94;5136465;27;20446;-75
2024/01/25 09:13:53;;;;;;;15.53;4.07;;;7.10;79.60;;;6.19;77.77;99163.31;5144129;27;20446;-73
2024/01/25 09:16:22;;;;;;;18.17;4.33;;;7.20;79.40;;;6.29;77.19;99159.63;5142794;27;20453;-74
2024/01/25 09:18:50;;;;;;;14.10;4.30;;;7.20;79.40;;;6.26;76.83;99157.28;5121537;27;20847;-73
2024/01/25 09:21:18;;;;;;;15.37;4.30;;;7.30;79.10;;;6.28;76.63;99155.28;5147184;27;20511;-75
2024/01/25 09:23:45;;;;;;;12.40;4.20;;;7.30;79.10;;;6.45;76.77;99154.38;5144459;27;20454;-74
2024/01/25 09:26:12;;;;;;;11.63;3.80;;;7.40;79.10;;;6.33;76.13;99147.59;5139270;27;20464;-74
2024/01/25 09:28:40;;;;;;;18.10;4.90;;;7.40;78.70;;;6.38;76.48;99159.56;5119307;27;20460;-76
2024/01/25 09:31:08;;;;;;;15.97;4.30;;;7.40;78.80;;;6.54;75.92;99170.50;5122501;27;20502;-74
2024/01/25 09:33:35;;;;;;;17.10;4.87;;;7.50;78.80;;;6.47;75.19;99159.56;5124665;27;20453;-75
2024/01/25 09:36:05;;;;;;;9.13;4.40;;;7.50;78.20;;;6.50;75.37;99161.94;5137617;27;20442;-74
2024/01/25 09:38:32;;;;;;;14.93;4.53;;;7.50;78.40;;;6.55;75.30;99165.00;5145045;27;20447;-76
2024/01/25 09:40:59;;;;;;;12.73;4.57;;;7.50;78.30;;;6.48;75.03;99164.78;5123795;27;20465;-74
2024/01/25 09:43:27;;;;;;;15.53;4.17;;;7.50;78.00;;;6.66;74.56;99182.66;5120065;27;20505;-74
2024/01/25 09:45:55;;;;;;;13.10;4.07;;;7.60;78.00;;;6.65;73.73;99170.22;5138608;27;20826;-76
2024/01/25 09:48:23;;;;;;;15.27;4.30;;;7.60;77.40;;;6.68;73.58;99169.06;5142065;27;20434;-75
2024/01/25 09:50:50;;;;;;;17.63;4.23;;;7.70;77.30;;;6.76;72.92;99182.53;5121775;27;20450;-75
2024/01/25 09:53:23;;;;;;;15.20;4.10;;;7.70;77.00;;;6.79;72.57;99179.50;5135544;27;20477;-73
2024/01/25 09:56:02;;;;;;;16.13;4.33;;;7.80;76.90;;;6.82;72.38;99178.34;5126808;27;20868;-73
2024/01/25 09:58:38;;;;;;;19.67;4.00;;;7.80;76.60;;;6.91;72.71;99183.56;5141292;27;20454;-77
2024/01/25 10:01:07;;;;;;;16.20;5.77;;;7.90;76.80;;;6.91;72.42;99180.06;5143278;27;20524;-72
2024/01/25 10:03:35;;;;;;;14.90;4.63;;;7.90;76.50;;;6.94;71.79;99194.00;5139475;27;20464;-74
2024/01/25 10:06:03;;;;;;;16.67;4.00;;;7.90;76.10;;;6.93;70.58;99178.06;5139801;27;20477;-74
2024/01/25 10:08:32;;;;;;;15.27;3.80;;;7.90;75.50;;;7.04;71.01;99185.78;5137001;27;20472;-74
2024/01/25 10:10:59;;;;;;;12.70;4.07;;;8.00;75.80;;;7.11;70.40;99190.53;5122559;27;20455;-75
2024/01/25 10:13:28;;;;;;;13.87;4.30;;;8.00;75.50;;;7.12;70.25;99184.16;5137708;27;20494;-73
2024/01/25 10:15:56;;;;;;;17.03;4.10;;;8.00;75.30;;;6.90;69.27;99124.63;5145161;27;20485;-74
2024/01/25 10:18:24;;;;;;;24.30;4.70;;;8.20;74.90;;;7.41;68.91;99190.91;5141778;27;20453;-74
2024/01/25 10:20:52;;;;;;;17.17;4.00;;;8.30;74.70;;;7.31;68.52;99188.38;5142834;27;20442;-74
2024/01/25 10:23:22;;;;;;;18.30;4.70;;;8.30;74.40;;;7.34;68.38;99191.56;5123810;27;20453;-72
2024/01/25 10:25:50;;;;;;;14.90;4.10;;;8.30;74.30;;;7.51;67.96;99187.06;5105679;27;20988;-75
2024/01/25 10:28:18;;;;;;;16.50;4.33;;;8.40;74.10;;;7.43;67.46;99179.00;5118151;27;20546;-75